Wetterdaten: Samstag, 26.11.2011
Datum Zeit Temp. A. Feuchte A. Luftdruck Regen Wind Richtung Richtung Sonnenschein UV Solar Windben
26.11.2011 00:00 8,0 C 87 % 1024,7 hPa 0,0 mm 8,0 km/h (2 Bft) W-SW 247 0 min 0 UV-I 0 W/m 22,5 km/h (4 Bft)
26.11.2011 00:10 8,0 C 87 % 1024,7 hPa 0,0 mm 8,0 km/h (2 Bft) W-SW 247 0 min 0 UV-I 0 W/m 22,5 km/h (4 Bft)
26.11.2011 00:20 7,9 C 87 % 1024,7 hPa 0,0 mm 9,7 km/h (2 Bft) W-SW 247 0 min 0 UV-I 0 W/m 25,7 km/h (4 Bft)
26.11.2011 00:30 7,9 C 87 % 1024,8 hPa 0,0 mm 9,7 km/h (2 Bft) W-SW 247 0 min 0 UV-I 0 W/m 25,7 km/h (4 Bft)
26.11.2011 00:40 7,8 C 87 % 1024,8 hPa 0,0 mm 6,4 km/h (2 Bft) W-SW 247 0 min 0 UV-I 0 W/m 19,3 km/h (3 Bft)
26.11.2011 00:50 7,8 C 86 % 1025,2 hPa 0,0 mm 9,7 km/h (2 Bft) W-SW 247 0 min 0 UV-I 0 W/m 29,0 km/h (5 Bft)
26.11.2011 01:00 7,8 C 86 % 1025,3 hPa 0,0 mm 8,0 km/h (2 Bft) W 270 0 min 0 UV-I 0 W/m 20,9 km/h (4 Bft)
26.11.2011 01:10 7,8 C 86 % 1025,4 hPa 0,0 mm 9,7 km/h (2 Bft) W 270 0 min 0 UV-I 0 W/m 24,1 km/h (4 Bft)
26.11.2011 01:20 7,8 C 86 % 1025,3 hPa 0,0 mm 6,4 km/h (2 Bft) W-SW 247 0 min 0 UV-I 0 W/m 19,3 km/h (3 Bft)
26.11.2011 01:30 7,7 C 86 % 1025,5 hPa 0,0 mm 6,4 km/h (2 Bft) W 270 0 min 0 UV-I 0 W/m 19,3 km/h (3 Bft)
26.11.2011 01:40 7,7 C 86 % 1025,5 hPa 0,0 mm 6,4 km/h (2 Bft) W 270 0 min 0 UV-I 0 W/m 20,9 km/h (4 Bft)
26.11.2011 01:50 7,7 C 86 % 1025,3 hPa 0,0 mm 6,4 km/h (2 Bft) W-SW 247 0 min 0 UV-I 0 W/m 24,1 km/h (4 Bft)
26.11.2011 02:00 7,7 C 86 % 1025,5 hPa 0,0 mm 8,0 km/h (2 Bft) W 270 0 min 0 UV-I 0 W/m 20,9 km/h (4 Bft)
26.11.2011 02:10 7,7 C 86 % 1025,5 hPa 0,0 mm 8,0 km/h (2 Bft) W-SW 247 0 min 0 UV-I 0 W/m 19,3 km/h (3 Bft)
26.11.2011 02:20 7,7 C 86 % 1025,5 hPa 0,0 mm 8,0 km/h (2 Bft) W-SW 247 0 min 0 UV-I 0 W/m 20,9 km/h (4 Bft)
26.11.2011 02:30 7,7 C 86 % 1025,6 hPa 0,0 mm 8,0 km/h (2 Bft) W 270 0 min 0 UV-I 0 W/m 19,3 km/h (3 Bft)
26.11.2011 02:40 7,6 C 86 % 1025,8 hPa 0,0 mm 8,0 km/h (2 Bft) W-SW 247 0 min 0 UV-I 0 W/m 20,9 km/h (4 Bft)
26.11.2011 02:50 7,6 C 86 % 1025,7 hPa 0,0 mm 6,4 km/h (2 Bft) W-SW 247 0 min 0 UV-I 0 W/m 17,7 km/h (3 Bft)
26.11.2011 03:00 7,4 C 86 % 1026,0 hPa 0,0 mm 6,4 km/h (2 Bft) W-SW 247 0 min 0 UV-I 0 W/m 16,1 km/h (3 Bft)
26.11.2011 03:10 7,4 C 86 % 1026,2 hPa 0,0 mm 8,0 km/h (2 Bft) W-SW 247 0 min 0 UV-I 0 W/m 20,9 km/h (4 Bft)
26.11.2011 03:20 7,3 C 87 % 1026,1 hPa 0,0 mm 8,0 km/h (2 Bft) W-SW 247 0 min 0 UV-I 0 W/m 20,9 km/h (4 Bft)
26.11.2011 03:30 7,3 C 87 % 1026,2 hPa 0,0 mm 6,4 km/h (2 Bft) W-SW 247 0 min 0 UV-I 0 W/m 17,7 km/h (3 Bft)
26.11.2011 03:40 7,3 C 87 % 1026,4 hPa 0,0 mm 4,8 km/h (1 Bft) W 270 0 min 0 UV-I 0 W/m 16,1 km/h (3 Bft)
26.11.2011 03:50 7,2 C 87 % 1026,4 hPa 0,0 mm 8,0 km/h (2 Bft) W 270 0 min 0 UV-I 0 W/m 20,9 km/h (4 Bft)
26.11.2011 04:00 7,2 C 87 % 1026,4 hPa 0,0 mm 6,4 km/h (2 Bft) W-SW 247 0 min 0 UV-I 0 W/m 17,7 km/h (3 Bft)
26.11.2011 04:10 7,2 C 87 % 1026,4 hPa 0,0 mm 6,4 km/h (2 Bft) W-SW 247 0 min 0 UV-I 0 W/m 17,7 km/h (3 Bft)
26.11.2011 04:20 7,2 C 87 % 1026,3 hPa 0,0 mm 6,4 km/h (2 Bft) SW 225 0 min 0 UV-I 0 W/m 17,7 km/h (3 Bft)
26.11.2011 04:30 7,1 C 88 % 1026,4 hPa 0,0 mm 4,8 km/h (1 Bft) W-SW 247 0 min 0 UV-I 0 W/m 16,1 km/h (3 Bft)
26.11.2011 04:40 7,0 C 88 % 1026,4 hPa 0,0 mm 6,4 km/h (2 Bft) W-SW 247 0 min 0 UV-I 0 W/m 17,7 km/h (3 Bft)
26.11.2011 04:50 6,9 C 88 % 1026,4 hPa 0,0 mm 6,4 km/h (2 Bft) W-SW 247 0 min 0 UV-I 0 W/m 17,7 km/h (3 Bft)
26.11.2011 05:00 6,8 C 88 % 1026,5 hPa 0,0 mm 4,8 km/h (1 Bft) W-SW 247 0 min 0 UV-I 0 W/m 17,7 km/h (3 Bft)
26.11.2011 05:10 6,7 C 88 % 1026,7 hPa 0,0 mm 6,4 km/h (2 Bft) W-SW 247 0 min 0 UV-I 0 W/m 16,1 km/h (3 Bft)
26.11.2011 05:20 6,7 C 92 % 1026,8 hPa 0,0 mm 6,4 km/h (2 Bft) W-SW 247 0 min 0 UV-I 0 W/m 19,3 km/h (3 Bft)
26.11.2011 05:30 6,6 C 88 % 1026,9 hPa 0,0 mm 3,2 km/h (1 Bft) W-SW 247 0 min 0 UV-I 0 W/m 17,7 km/h (3 Bft)
26.11.2011 05:40 6,4 C 88 % 1026,9 hPa 0,0 mm 6,4 km/h (2 Bft) W 270 0 min 0 UV-I 0 W/m 17,7 km/h (3 Bft)
26.11.2011 05:50 6,3 C 88 % 1026,9 hPa 0,0 mm 6,4 km/h (2 Bft) W-SW 247 0 min 0 UV-I 0 W/m 16,1 km/h (3 Bft)
26.11.2011 06:00 6,3 C 88 % 1026,9 hPa 0,0 mm 8,0 km/h (2 Bft) W-SW 247 0 min 0 UV-I 0 W/m 17,7 km/h (3 Bft)
26.11.2011 06:10 6,2 C 88 % 1027,0 hPa 0,0 mm 4,8 km/h (1 Bft) W-SW 247 0 min 0 UV-I 0 W/m 17,7 km/h (3 Bft)
26.11.2011 06:20 6,2 C 88 % 1027,3 hPa 0,0 mm 4,8 km/h (1 Bft) W-SW 247 0 min 0 UV-I 0 W/m 14,5 km/h (3 Bft)
26.11.2011 06:30 6,1 C 88 % 1027,4 hPa 0,0 mm 4,8 km/h (1 Bft) W-SW 247 0 min 0 UV-I 0 W/m 14,5 km/h (3 Bft)
26.11.2011 06:40 6,0 C 88 % 1027,4 hPa 0,0 mm 6,4 km/h (2 Bft) SW 225 0 min 0 UV-I 0 W/m 14,5 km/h (3 Bft)
26.11.2011 06:50 5,9 C 88 % 1027,3 hPa 0,0 mm 4,8 km/h (1 Bft) SW 225 0 min 0 UV-I 0 W/m 14,5 km/h (3 Bft)
26.11.2011 07:00 5,9 C 88 % 1027,5 hPa 0,0 mm 4,8 km/h (1 Bft) SW 225 0 min 0 UV-I 0 W/m 11,3 km/h (2 Bft)
26.11.2011 07:10 5,8 C 88 % 1027,6 hPa 0,0 mm 4,8 km/h (1 Bft) W 270 0 min 0 UV-I 0 W/m 11,3 km/h (2 Bft)
26.11.2011 07:20 5,8 C 88 % 1027,6 hPa 0,0 mm 3,2 km/h (1 Bft) W 270 0 min 0 UV-I 0 W/m 11,3 km/h (2 Bft)
26.11.2011 07:30 5,7 C 88 % 1027,7 hPa 0,0 mm 6,4 km/h (2 Bft) W-SW 247 0 min 0 UV-I 0 W/m 19,3 km/h (3 Bft)
26.11.2011 07:40 5,6 C 88 % 1027,5 hPa 0,0 mm 3,2 km/h (1 Bft) SW 225 0 min 0 UV-I 0 W/m 12,9 km/h (3 Bft)
26.11.2011 07:50 5,6 C 88 % 1027,6 hPa 0,0 mm 3,2 km/h (1 Bft) SW 225 0 min 0 UV-I 0 W/m 9,7 km/h (2 Bft)
26.11.2011 08:00 5,4 C 88 % 1027,8 hPa 0,0 mm 3,2 km/h (1 Bft) W-SW 247 0 min 0 UV-I 0 W/m 11,3 km/h (2 Bft)
26.11.2011 08:10 5,4 C 88 % 1027,7 hPa 0,0 mm 3,2 km/h (1 Bft) S-SW 202 0 min 0 UV-I 5 W/m 8,0 km/h (2 Bft)
26.11.2011 08:20 5,3 C 88 % 1027,9 hPa 0,0 mm 3,2 km/h (1 Bft) W-SW 247 0 min 0 UV-I 11 W/m 9,7 km/h (2 Bft)
26.11.2011 08:30 5,3 C 88 % 1028,0 hPa 0,0 mm 3,2 km/h (1 Bft) W-SW 247 0 min 0 UV-I 19 W/m 14,5 km/h (3 Bft)
26.11.2011 08:40 5,2 C 88 % 1027,7 hPa 0,0 mm 3,2 km/h (1 Bft) SW 225 0 min 0 UV-I 23 W/m 11,3 km/h (2 Bft)
26.11.2011 08:50 5,2 C 88 % 1027,7 hPa 0,0 mm 3,2 km/h (1 Bft) SW 225 0 min 0 UV-I 33 W/m 9,7 km/h (2 Bft)
26.11.2011 09:00 5,2 C 88 % 1028,1 hPa 0,0 mm 1,6 km/h (1 Bft) W-SW 247 0 min 0 UV-I 37 W/m 9,7 km/h (2 Bft)
26.11.2011 09:10 5,2 C 88 % 1027,9 hPa 0,0 mm 1,6 km/h (1 Bft) SW 225 0 min 0 UV-I 35 W/m 6,4 km/h (2 Bft)
26.11.2011 09:20 5,2 C 88 % 1028,0 hPa 0,0 mm 1,6 km/h (1 Bft) SW 225 0 min 0 UV-I 58 W/m 8,0 km/h (2 Bft)
26.11.2011 09:30 5,3 C 89 % 1028,0 hPa 0,0 mm 1,6 km/h (1 Bft) S-SW 202 0 min 0 UV-I 65 W/m 4,8 km/h (1 Bft)
26.11.2011 09:40 5,5 C 89 % 1027,8 hPa 0,0 mm 1,6 km/h (1 Bft) S-SW 202 0 min 0 UV-I 70 W/m 9,7 km/h (2 Bft)
26.11.2011 09:50 5,7 C 89 % 1027,7 hPa 0,0 mm 1,6 km/h (1 Bft) W-SW 247 0 min 0 UV-I 72 W/m 9,7 km/h (2 Bft)
26.11.2011 10:00 5,9 C 89 % 1027,7 hPa 0,0 mm 3,2 km/h (1 Bft) SW 225 0 min 0 UV-I 74 W/m 8,0 km/h (2 Bft)
26.11.2011 10:10 6,1 C 89 % 1027,7 hPa 0,0 mm 3,2 km/h (1 Bft) SW 225 0 min 0 UV-I 77 W/m 17,7 km/h (3 Bft)
26.11.2011 10:20 6,3 C 89 % 1027,8 hPa 0,0 mm 3,2 km/h (1 Bft) SW 225 0 min 0 UV-I 86 W/m 16,1 km/h (3 Bft)
26.11.2011 10:30 6,6 C 88 % 1027,7 hPa 0,0 mm 3,2 km/h (1 Bft) W-SW 247 0 min 0 UV-I 86 W/m 16,1 km/h (3 Bft)
26.11.2011 10:40 6,8 C 88 % 1027,8 hPa 0,0 mm 4,8 km/h (1 Bft) SW 225 0 min 1 UV-I 93 W/m 11,3 km/h (2 Bft)
26.11.2011 10:50 7,0 C 87 % 1027,8 hPa 0,0 mm 4,8 km/h (1 Bft) SW 225 0 min 1 UV-I 95 W/m 16,1 km/h (3 Bft)
26.11.2011 11:00 7,2 C 86 % 1027,7 hPa 0,0 mm 4,8 km/h (1 Bft) W-SW 247 0 min 1 UV-I 86 W/m 16,1 km/h (3 Bft)
26.11.2011 11:10 7,4 C 86 % 1027,5 hPa 0,0 mm 6,4 km/h (2 Bft) W-SW 247 0 min 1 UV-I 74 W/m 16,1 km/h (3 Bft)
26.11.2011 11:20 7,7 C 85 % 1027,5 hPa 0,0 mm 8,0 km/h (2 Bft) W-SW 247 0 min 1 UV-I 107 W/m 22,5 km/h (4 Bft)
26.11.2011 11:30 7,9 C 84 % 1027,4 hPa 0,0 mm 6,4 km/h (2 Bft) W-SW 247 0 min 1 UV-I 86 W/m 20,9 km/h (4 Bft)
26.11.2011 11:40 8,1 C 83 % 1027,0 hPa 0,0 mm 8,0 km/h (2 Bft) W-SW 247 0 min 1 UV-I 93 W/m 24,1 km/h (4 Bft)
26.11.2011 11:50 8,2 C 81 % 1026,9 hPa 0,0 mm 6,4 km/h (2 Bft) S-SW 202 0 min 1 UV-I 151 W/m 20,9 km/h (4 Bft)
26.11.2011 12:00 8,5 C 79 % 1026,7 hPa 0,0 mm 9,7 km/h (2 Bft) W-SW 247 10 min 1 UV-I 237 W/m 27,4 km/h (4 Bft)
26.11.2011 12:10 8,9 C 77 % 1026,7 hPa 0,0 mm 6,4 km/h (2 Bft) S-SW 202 10 min 1 UV-I 204 W/m 20,9 km/h (4 Bft)
26.11.2011 12:20 8,9 C 77 % 1026,7 hPa 0,0 mm 8,0 km/h (2 Bft) W-SW 247 0 min 1 UV-I 160 W/m 22,5 km/h (4 Bft)
26.11.2011 12:30 9,1 C 77 % 1026,7 hPa 0,0 mm 9,7 km/h (2 Bft) W-SW 247 10 min 1 UV-I 183 W/m 25,7 km/h (4 Bft)
26.11.2011 12:40 9,2 C 76 % 1026,5 hPa 0,0 mm 11,3 km/h (2 Bft) W-SW 247 10 min 1 UV-I 248 W/m 25,7 km/h (4 Bft)
26.11.2011 12:50 9,4 C 77 % 1026,2 hPa 0,0 mm 8,0 km/h (2 Bft) W-SW 247 10 min 1 UV-I 185 W/m 19,3 km/h (3 Bft)
26.11.2011 13:00 9,4 C 76 % 1026,3 hPa 0,0 mm 9,7 km/h (2 Bft) W-SW 247 0 min 1 UV-I 118 W/m 25,7 km/h (4 Bft)
26.11.2011 13:10 9,3 C 75 % 1026,2 hPa 0,0 mm 8,0 km/h (2 Bft) SW 225 10 min 1 UV-I 197 W/m 20,9 km/h (4 Bft)
26.11.2011 13:20 9,5 C 75 % 1026,1 hPa 0,0 mm 9,7 km/h (2 Bft) SW 225 0 min 1 UV-I 116 W/m 25,7 km/h (4 Bft)
26.11.2011 13:30 9,5 C 75 % 1026,0 hPa 0,0 mm 9,7 km/h (2 Bft) W-SW 247 0 min 1 UV-I 107 W/m 25,7 km/h (4 Bft)
26.11.2011 13:40 9,4 C 75 % 1025,8 hPa 0,0 mm 9,7 km/h (2 Bft) W-SW 247 0 min 0 UV-I 74 W/m 20,9 km/h (4 Bft)
26.11.2011 13:50 9,4 C 75 % 1025,8 hPa 0,0 mm 6,4 km/h (2 Bft) W-SW 247 10 min 1 UV-I 193 W/m 19,3 km/h (3 Bft)
26.11.2011 14:00 9,6 C 75 % 1025,8 hPa 0,0 mm 8,0 km/h (2 Bft) W-SW 247 10 min 1 UV-I 149 W/m 22,5 km/h (4 Bft)
26.11.2011 14:10 9,7 C 74 % 1025,6 hPa 0,0 mm 8,0 km/h (2 Bft) W 270 0 min 1 UV-I 105 W/m 20,9 km/h (4 Bft)
26.11.2011 14:20 9,8 C 74 % 1025,5 hPa 0,0 mm 8,0 km/h (2 Bft) W-SW 247 0 min 1 UV-I 113 W/m 24,1 km/h (4 Bft)
26.11.2011 14:30 9,8 C 74 % 1025,3 hPa 0,0 mm 8,0 km/h (2 Bft) W-SW 247 0 min 0 UV-I 81 W/m 22,5 km/h (4 Bft)
26.11.2011 14:40 9,8 C 74 % 1025,1 hPa 0,0 mm 8,0 km/h (2 Bft) W-SW 247 0 min 0 UV-I 76 W/m 19,3 km/h (3 Bft)
26.11.2011 14:50 9,8 C 75 % 1025,0 hPa 0,0 mm 8,0 km/h (2 Bft) W-SW 247 0 min 0 UV-I 67 W/m 27,4 km/h (4 Bft)
26.11.2011 15:00 9,8 C 75 % 1024,6 hPa 0,0 mm 6,4 km/h (2 Bft) W-SW 247 0 min 0 UV-I 62 W/m 22,5 km/h (4 Bft)
26.11.2011 15:10 9,8 C 75 % 1024,6 hPa 0,0 mm 6,4 km/h (2 Bft) W-SW 247 0 min 0 UV-I 54 W/m 19,3 km/h (3 Bft)
26.11.2011 15:20 9,8 C 76 % 1024,3 hPa 0,0 mm 8,0 km/h (2 Bft) W-SW 247 0 min 0 UV-I 53 W/m 27,4 km/h (4 Bft)
26.11.2011 15:30 9,8 C 76 % 1024,3 hPa 0,0 mm 11,3 km/h (2 Bft) W 270 0 min 0 UV-I 40 W/m 27,4 km/h (4 Bft)
26.11.2011 15:40 9,8 C 77 % 1024,1 hPa 0,0 mm 8,0 km/h (2 Bft) W-SW 247 0 min 0 UV-I 33 W/m 20,9 km/h (4 Bft)
26.11.2011 15:50 9,8 C 77 % 1024,0 hPa 0,0 mm 6,4 km/h (2 Bft) SW 225 0 min 0 UV-I 26 W/m 17,7 km/h (3 Bft)
26.11.2011 16:00 9,8 C 77 % 1024,0 hPa 0,0 mm 8,0 km/h (2 Bft) W-SW 247 0 min 0 UV-I 14 W/m 24,1 km/h (4 Bft)
26.11.2011 16:10 9,8 C 77 % 1024,0 hPa 0,0 mm 6,4 km/h (2 Bft) SW 225 0 min 0 UV-I 11 W/m 16,1 km/h (3 Bft)
26.11.2011 16:20 9,8 C 77 % 1023,9 hPa 0,0 mm 6,4 km/h (2 Bft) SW 225 0 min 0 UV-I 0 W/m 19,3 km/h (3 Bft)
26.11.2011 16:30 9,7 C 77 % 1023,7 hPa 0,0 mm 4,8 km/h (1 Bft) W-SW 247 0 min 0 UV-I 0 W/m 20,9 km/h (4 Bft)
26.11.2011 16:40 9,7 C 77 % 1023,5 hPa 0,0 mm 4,8 km/h (1 Bft) SW 225 0 min 0 UV-I 0 W/m 19,3 km/h (3 Bft)
26.11.2011 16:50 9,7 C 78 % 1023,4 hPa 0,0 mm 4,8 km/h (1 Bft) W-SW 247 0 min 0 UV-I 0 W/m 14,5 km/h (3 Bft)
26.11.2011 17:00 9,6 C 78 % 1023,3 hPa 0,0 mm 4,8 km/h (1 Bft) S-SW 202 0 min 0 UV-I 0 W/m 16,1 km/h (3 Bft)
26.11.2011 17:10 9,6 C 78 % 1023,2 hPa 0,0 mm 3,2 km/h (1 Bft) SW 225 0 min 0 UV-I 0 W/m 17,7 km/h (3 Bft)
26.11.2011 17:20 9,6 C 78 % 1023,2 hPa 0,0 mm 4,8 km/h (1 Bft) W-SW 247 0 min 0 UV-I 0 W/m 16,1 km/h (3 Bft)
26.11.2011 17:30 9,5 C 79 % 1023,2 hPa 0,0 mm 4,8 km/h (1 Bft) S-SW 202 0 min 0 UV-I 0 W/m 16,1 km/h (3 Bft)
26.11.2011 17:40 9,4 C 79 % 1023,1 hPa 0,0 mm 4,8 km/h (1 Bft) W-SW 247 0 min 0 UV-I 0 W/m 14,5 km/h (3 Bft)
26.11.2011 17:50 9,5 C 79 % 1023,1 hPa 0,0 mm 6,4 km/h (2 Bft) SW 225 0 min 0 UV-I 0 W/m 19,3 km/h (3 Bft)
26.11.2011 18:00 9,5 C 80 % 1023,2 hPa 0,0 mm 6,4 km/h (2 Bft) W-SW 247 0 min 0 UV-I 0 W/m 20,9 km/h (4 Bft)
26.11.2011 18:10 9,6 C 80 % 1023,3 hPa 0,0 mm 9,7 km/h (2 Bft) W-SW 247 0 min 0 UV-I 0 W/m 30,6 km/h (5 Bft)
26.11.2011 18:20 9,7 C 80 % 1022,9 hPa 0,0 mm 8,0 km/h (2 Bft) W-SW 247 0 min 0 UV-I 0 W/m 25,7 km/h (4 Bft)
26.11.2011 18:30 9,8 C 79 % 1022,8 hPa 0,0 mm 8,0 km/h (2 Bft) SW 225 0 min 0 UV-I 0 W/m 22,5 km/h (4 Bft)
26.11.2011 18:40 9,9 C 79 % 1023,0 hPa 0,0 mm 11,3 km/h (2 Bft) W-SW 247 0 min 0 UV-I 0 W/m 27,4 km/h (4 Bft)
26.11.2011 18:50 10,0 C 78 % 1023,1 hPa 0,0 mm 12,9 km/h (3 Bft) W-SW 247 0 min 0 UV-I 0 W/m 32,2 km/h (5 Bft)
26.11.2011 19:00 10,1 C 77 % 1023,2 hPa 0,0 mm 12,9 km/h (3 Bft) W-SW 247 0 min 0 UV-I 0 W/m 33,8 km/h (5 Bft)
26.11.2011 19:10 10,1 C 76 % 1022,9 hPa 0,0 mm 11,3 km/h (2 Bft) W-SW 247 0 min 0 UV-I 0 W/m 29,0 km/h (5 Bft)
26.11.2011 19:20 10,1 C 76 % 1022,7 hPa 0,0 mm 12,9 km/h (3 Bft) W-SW 247 0 min 0 UV-I 0 W/m 30,6 km/h (5 Bft)
26.11.2011 19:30 10,1 C 75 % 1022,7 hPa 0,0 mm 12,9 km/h (3 Bft) SW 225 0 min 0 UV-I 0 W/m 30,6 km/h (5 Bft)
26.11.2011 19:40 10,1 C 75 % 1022,6 hPa 0,0 mm 9,7 km/h (2 Bft) W-SW 247 0 min 0 UV-I 0 W/m 22,5 km/h (4 Bft)
26.11.2011 19:50 10,0 C 75 % 1022,6 hPa 0,0 mm 9,7 km/h (2 Bft) W-SW 247 0 min 0 UV-I 0 W/m 24,1 km/h (4 Bft)
26.11.2011 20:00 10,0 C 75 % 1022,4 hPa 0,0 mm 9,7 km/h (2 Bft) S-SW 202 0 min 0 UV-I 0 W/m 20,9 km/h (4 Bft)
26.11.2011 20:10 10,0 C 74 % 1022,6 hPa 0,0 mm 11,3 km/h (2 Bft) W-SW 247 0 min 0 UV-I 0 W/m 24,1 km/h (4 Bft)
26.11.2011 20:20 10,0 C 74 % 1022,7 hPa 0,0 mm 9,7 km/h (2 Bft) W-SW 247 0 min 0 UV-I 0 W/m 22,5 km/h (4 Bft)
26.11.2011 20:30 9,9 C 73 % 1022,7 hPa 0,0 mm 11,3 km/h (2 Bft) W-SW 247 0 min 0 UV-I 0 W/m 27,4 km/h (4 Bft)
26.11.2011 20:40 9,9 C 73 % 1022,7 hPa 0,0 mm 8,0 km/h (2 Bft) W-SW 247 0 min 0 UV-I 0 W/m 22,5 km/h (4 Bft)
26.11.2011 20:50 9,8 C 73 % 1022,7 hPa 0,0 mm 9,7 km/h (2 Bft) W-SW 247 0 min 0 UV-I 0 W/m 27,4 km/h (4 Bft)
26.11.2011 21:00 9,8 C 73 % 1022,4 hPa 0,0 mm 9,7 km/h (2 Bft) W-SW 247 0 min 0 UV-I 0 W/m 22,5 km/h (4 Bft)
26.11.2011 21:10 9,7 C 73 % 1022,2 hPa 0,0 mm 8,0 km/h (2 Bft) S-SW 202 0 min 0 UV-I 0 W/m 25,7 km/h (4 Bft)
26.11.2011 21:20 9,7 C 74 % 1022,1 hPa 0,0 mm 6,4 km/h (2 Bft) S-SW 202 0 min 0 UV-I 0 W/m 16,1 km/h (3 Bft)
26.11.2011 21:30 9,6 C 74 % 1022,0 hPa 0,0 mm 4,8 km/h (1 Bft) S-SW 202 0 min 0 UV-I 0 W/m 14,5 km/h (3 Bft)
26.11.2011 21:40 9,4 C 75 % 1021,8 hPa 0,0 mm 6,4 km/h (2 Bft) S-SW 202 0 min 0 UV-I 0 W/m 20,9 km/h (4 Bft)
26.11.2011 21:50 9,3 C 75 % 1021,9 hPa 0,0 mm 8,0 km/h (2 Bft) W-SW 247 0 min 0 UV-I 0 W/m 25,7 km/h (4 Bft)
26.11.2011 22:00 9,3 C 76 % 1021,8 hPa 0,0 mm 8,0 km/h (2 Bft) W-SW 247 0 min 0 UV-I 0 W/m 22,5 km/h (4 Bft)
26.11.2011 22:10 9,3 C 76 % 1021,7 hPa 0,0 mm 6,4 km/h (2 Bft) SW 225 0 min 0 UV-I 0 W/m 20,9 km/h (4 Bft)
26.11.2011 22:20 9,2 C 76 % 1021,5 hPa 0,0 mm 8,0 km/h (2 Bft) W-SW 247 0 min 0 UV-I 0 W/m 24,1 km/h (4 Bft)
26.11.2011 22:30 9,2 C 76 % 1021,5 hPa 0,0 mm 9,7 km/h (2 Bft) SW 225 0 min 0 UV-I 0 W/m 24,1 km/h (4 Bft)
26.11.2011 22:40 9,2 C 76 % 1021,6 hPa 0,0 mm 8,0 km/h (2 Bft) W-SW 247 0 min 0 UV-I 0 W/m 24,1 km/h (4 Bft)
26.11.2011 22:50 9,2 C 76 % 1021,6 hPa 0,0 mm 8,0 km/h (2 Bft) W-SW 247 0 min 0 UV-I 0 W/m 24,1 km/h (4 Bft)
26.11.2011 23:00 9,2 C 76 % 1021,7 hPa 0,0 mm 9,7 km/h (2 Bft) W-SW 247 0 min 0 UV-I 0 W/m 25,7 km/h (4 Bft)
26.11.2011 23:10 9,2 C 76 % 1021,7 hPa 0,0 mm 8,0 km/h (2 Bft) W-SW 247 0 min 0 UV-I 0 W/m 19,3 km/h (3 Bft)
26.11.2011 23:20 9,2 C 76 % 1021,6 hPa 0,0 mm 9,7 km/h (2 Bft) W-SW 247 0 min 0 UV-I 0 W/m 24,1 km/h (4 Bft)
26.11.2011 23:30 9,2 C 76 % 1021,5 hPa 0,0 mm 6,4 km/h (2 Bft) W-SW 247 0 min 0 UV-I 0 W/m 20,9 km/h (4 Bft)
26.11.2011 23:40 9,2 C 76 % 1021,3 hPa 0,0 mm 6,4 km/h (2 Bft) W-SW 247 0 min 0 UV-I 0 W/m 19,3 km/h (3 Bft)
26.11.2011 23:50 9,2 C 76 % 1021,1 hPa 0,0 mm 6,4 km/h (2 Bft) SW 225 0 min 0 UV-I 0 W/m 22,5 km/h (4 Bft)
_ Min-Zeit 08:30 20:30 23:50 - 09:00 - - - - - 09:30
Minimum _ 5,2 C 73 % 1021,1 hPa - 1,6 km/h (1 Bft) - - - - - 4,8 km/h (1 Bft)
_ Max-Zeit 19:10 05:20 09:00 00:00 18:50 - - 12:00 12:00 12:40 19:00
Maximum _ 10,2 C 92 % 1028,1 hPa 0,0 mm 12,9 km/h
W-SW (3 Bft)
- - 10 min 1 UV-I 248 W/m 33,8 km/h
W-SW (5 Bft)
Durchschnitt _ 8,2 C 82 % 1025,2 hPa #0,0 mm 6,9 km/h (2 Bft) W-SW - #1:20 h 1 UV-I 91 W/m 19,7 km/h (3 Bft)